Time;durP1;ratioP1;P1;durP2;ratioP2;P2;SDS_P1;SDS_P2;PMS_P1;PMS_P2;Temp;Humidity;BMP_temperature;BMP_pressure;BME280_temperature;BME280_humidity;BME280_pressure;Samples;Min_cycle;Max_cycle;Signal;HPM_P1;HPM_P2
2022/01/15 00:00:53;;;;;;;68.32;24.10;;;2.50;99.90;;;;;;5027816;28;20175;-66
2022/01/15 00:03:18;;;;;;;75.88;25.92;;;2.50;99.90;;;;;;5029102;28;20448;-66
2022/01/15 00:05:45;;;;;;;74.25;25.48;;;2.50;99.90;;;;;;5030941;28;20497;-66
2022/01/15 00:08:11;;;;;;;71.82;25.92;;;2.50;99.90;;;;;;5027908;28;20041;-66
2022/01/15 00:10:37;;;;;;;76.78;26.17;;;2.60;99.90;;;;;;5025766;28;20030;-66
2022/01/15 00:13:07;;;;;;;68.97;25.08;;;2.60;99.90;;;;;;5026755;28;20116;-66
2022/01/15 00:15:37;;;;;;;75.28;24.73;;;2.60;99.90;;;;;;5026835;28;20132;-66
2022/01/15 00:18:12;;;;;;;74.70;25.90;;;2.60;99.90;;;;;;5029142;28;20120;-66
2022/01/15 00:20:38;;;;;;;71.80;25.38;;;2.60;99.90;;;;;;5031398;28;20128;-66
2022/01/15 00:23:04;;;;;;;73.72;24.52;;;2.60;99.90;;;;;;5026268;28;20057;-66
2022/01/15 00:25:32;;;;;;;72.20;23.98;;;2.60;99.90;;;;;;5027604;28;20388;-66
2022/01/15 00:27:59;;;;;;;75.82;25.92;;;2.60;99.90;;;;;;5026840;28;20068;-66
2022/01/15 00:30:26;;;;;;;70.97;24.77;;;2.60;99.90;;;;;;5029333;28;20515;-66
2022/01/15 00:32:52;;;;;;;71.20;24.58;;;2.60;99.90;;;;;;5029210;28;20512;-66
2022/01/15 00:35:20;;;;;;;65.90;23.60;;;2.60;99.90;;;;;;5028646;28;20515;-66
2022/01/15 00:37:47;;;;;;;63.70;23.33;;;2.60;99.90;;;;;;5027158;28;20116;-66
2022/01/15 00:40:18;;;;;;;63.63;23.90;;;2.60;99.90;;;;;;5026717;28;20155;-66
2022/01/15 00:42:45;;;;;;;70.57;24.58;;;2.60;99.90;;;;;;5028232;28;20032;-66
2022/01/15 00:45:17;;;;;;;66.72;23.70;;;2.60;99.90;;;;;;5027837;28;20098;-66
2022/01/15 00:47:43;;;;;;;67.07;22.83;;;2.60;99.90;;;;;;5026783;28;20087;-66
2022/01/15 00:50:09;;;;;;;66.88;23.70;;;2.60;99.90;;;;;;5029124;28;20092;-66
2022/01/15 00:52:35;;;;;;;66.40;23.88;;;2.60;99.90;;;;;;5026810;28;20400;-66
2022/01/15 00:55:02;;;;;;;64.70;23.70;;;2.60;99.90;;;;;;5026622;28;20029;-66
2022/01/15 00:57:27;;;;;;;66.28;23.50;;;2.60;99.90;;;;;;5028151;28;20040;-66
2022/01/15 00:59:53;;;;;;;71.60;24.20;;;2.60;99.90;;;;;;5029285;28;20033;-66
2022/01/15 01:02:19;;;;;;;63.22;23.30;;;2.50;99.90;;;;;;5027077;28;20635;-66
2022/01/15 01:04:45;;;;;;;68.40;23.58;;;2.50;99.90;;;;;;5026859;28;20385;-66
2022/01/15 01:07:11;;;;;;;65.60;22.75;;;2.50;99.90;;;;;;5026414;28;20045;-66
2022/01/15 01:20:28;;;;;;;60.60;20.88;;;2.50;99.90;;;;;;5029459;28;20103;-66
2022/01/15 01:22:56;;;;;;;46.58;17.25;;;2.50;99.90;;;;;;5026171;28;20033;-66
2022/01/15 01:25:26;;;;;;;61.60;21.83;;;2.30;99.90;;;;;;5027797;28;20021;-66
2022/01/15 01:27:55;;;;;;;62.55;22.77;;;2.30;99.90;;;;;;5027495;28;20065;-66
2022/01/15 01:30:26;;;;;;;70.07;23.52;;;2.30;99.90;;;;;;5026526;28;20030;-66
2022/01/15 01:33:03;;;;;;;65.22;22.80;;;2.30;99.90;;;;;;5028655;28;20025;-66
2022/01/15 01:35:41;;;;;;;71.07;24.23;;;2.30;99.90;;;;;;5028204;28;20056;-67
2022/01/15 01:38:22;;;;;;;72.13;23.90;;;2.30;99.90;;;;;;5025288;28;20041;-66
2022/01/15 01:40:50;;;;;;;71.43;23.92;;;2.30;99.90;;;;;;5025743;28;20109;-66
2022/01/15 01:46:10;;;;;;;68.57;23.27;;;2.30;99.90;;;;;;5027479;28;20409;-66
2022/01/15 01:48:36;;;;;;;75.75;25.95;;;2.30;99.90;;;;;;5026808;28;20037;-66
2022/01/15 01:51:02;;;;;;;79.75;24.88;;;2.30;99.90;;;;;;5026661;28;20100;-66
2022/01/15 01:53:27;;;;;;;72.25;24.73;;;2.30;99.90;;;;;;5029172;28;20408;-67
2022/01/15 01:55:53;;;;;;;78.00;26.15;;;2.30;99.90;;;;;;5025637;28;20028;-67
2022/01/15 01:58:19;;;;;;;74.65;24.67;;;2.40;99.90;;;;;;5025640;28;20112;-67
2022/01/15 02:00:44;;;;;;;72.35;23.98;;;2.40;99.90;;;;;;5025721;28;20026;-66
2022/01/15 02:03:10;;;;;;;62.08;20.63;;;2.40;99.90;;;;;;5025927;28;20071;-66
2022/01/15 02:05:39;;;;;;;73.03;24.23;;;2.30;99.90;;;;;;5028889;28;20485;-66
2022/01/15 02:08:05;;;;;;;71.38;25.88;;;2.30;99.90;;;;;;5024149;28;20037;-67
2022/01/15 02:10:31;;;;;;;74.72;24.92;;;2.20;99.90;;;;;;5022196;28;20032;-67
2022/01/15 02:12:57;;;;;;;79.38;25.15;;;2.20;99.90;;;;;;5024731;28;20036;-67
2022/01/15 02:15:24;;;;;;;81.55;26.52;;;2.30;99.90;;;;;;5022261;28;20128;-66
2022/01/15 02:17:50;;;;;;;79.10;26.50;;;2.20;99.90;;;;;;5027712;28;20029;-66
2022/01/15 02:20:48;;;;;;;81.43;26.00;;;2.30;99.90;;;;;;5027563;28;20117;-66
2022/01/15 02:26:09;;;;;;;85.50;27.27;;;2.40;99.90;;;;;;5025311;28;20051;-66
2022/01/15 02:28:40;;;;;;;80.72;26.13;;;2.40;99.90;;;;;;5027295;28;20029;-66
2022/01/15 02:31:15;;;;;;;79.60;27.27;;;2.50;99.90;;;;;;5027125;28;20029;-66
2022/01/15 02:33:43;;;;;;;83.65;27.33;;;2.50;99.90;;;;;;5027358;28;20028;-66
2022/01/15 02:36:11;;;;;;;78.90;25.85;;;2.50;99.90;;;;;;5025769;28;20041;-67
2022/01/15 02:38:38;;;;;;;81.93;25.63;;;2.50;99.90;;;;;;5028135;28;20120;-66
2022/01/15 02:41:04;;;;;;;76.10;26.55;;;2.50;99.90;;;;;;5024873;28;20548;-66
2022/01/15 02:43:34;;;;;;;78.40;26.02;;;2.50;99.90;;;;;;5026934;28;20049;-67
2022/01/15 02:46:18;;;;;;;75.40;26.52;;;2.60;99.90;;;;;;5024709;28;20038;-66
2022/01/15 02:48:45;;;;;;;79.72;25.25;;;2.60;99.90;;;;;;5024258;28;20655;-66
2022/01/15 02:51:12;;;;;;;76.05;25.80;;;2.60;99.90;;;;;;5025357;28;20469;-66
2022/01/15 02:53:38;;;;;;;68.28;23.38;;;2.60;99.90;;;;;;5028412;28;20124;-67
2022/01/15 02:56:04;;;;;;;69.13;23.83;;;2.60;99.90;;;;;;5024552;28;20155;-66
2022/01/15 02:58:30;;;;;;;76.45;25.17;;;2.60;99.90;;;;;;5026758;28;20079;-66
2022/01/15 03:00:56;;;;;;;71.93;24.05;;;2.60;99.90;;;;;;5024600;28;20025;-66
2022/01/15 03:03:22;;;;;;;73.13;23.30;;;2.60;99.90;;;;;;5026449;28;20057;-66
2022/01/15 03:05:47;;;;;;;71.20;23.67;;;2.70;99.90;;;;;;5031761;28;20029;-67
2022/01/15 03:08:13;;;;;;;72.25;24.10;;;2.60;99.90;;;;;;5029303;28;20087;-67
2022/01/15 03:10:39;;;;;;;68.72;23.42;;;2.60;99.90;;;;;;5029289;28;20484;-67
2022/01/15 03:13:13;;;;;;;64.57;23.85;;;2.60;99.90;;;;;;5028440;28;20572;-66
2022/01/15 03:15:40;;;;;;;66.78;22.88;;;2.60;99.90;;;;;;5030616;28;20036;-67
2022/01/15 03:18:06;;;;;;;67.38;23.00;;;2.60;99.90;;;;;;5030603;28;20485;-67
2022/01/15 03:20:32;;;;;;;65.68;22.05;;;2.60;99.90;;;;;;5032451;28;20041;-67
2022/01/15 03:22:58;;;;;;;70.45;23.60;;;2.60;99.90;;;;;;5027851;28;20547;-67
2022/01/15 03:25:24;;;;;;;69.40;24.42;;;2.60;99.90;;;;;;5028020;28;20026;-67
2022/01/15 03:27:51;;;;;;;69.00;23.80;;;2.60;99.90;;;;;;5030495;28;20040;-67
2022/01/15 03:30:16;;;;;;;63.88;22.27;;;2.60;99.90;;;;;;5030793;28;20109;-67
2022/01/15 03:32:43;;;;;;;75.40;25.33;;;2.60;99.90;;;;;;5032445;28;20104;-67
2022/01/15 03:35:12;;;;;;;68.18;23.50;;;2.60;99.90;;;;;;5027626;28;20040;-67
2022/01/15 03:37:38;;;;;;;72.00;24.45;;;2.60;99.90;;;;;;5030088;28;20021;-66
2022/01/15 03:40:06;;;;;;;73.93;23.20;;;2.60;99.90;;;;;;5028250;28;20076;-67
2022/01/15 03:42:32;;;;;;;66.13;21.70;;;2.60;99.90;;;;;;5030073;28;20072;-67
2022/01/15 03:44:57;;;;;;;69.20;23.13;;;2.60;99.90;;;;;;5030453;28;20296;-67
2022/01/15 03:47:23;;;;;;;76.57;24.58;;;2.60;99.90;;;;;;5030472;28;20057;-67
2022/01/15 03:49:49;;;;;;;70.57;24.13;;;2.50;99.90;;;;;;5028499;28;20560;-66
2022/01/15 03:52:15;;;;;;;70.57;23.08;;;2.50;99.90;;;;;;5026831;28;20554;-67
2022/01/15 03:54:40;;;;;;;72.75;23.10;;;2.50;99.90;;;;;;5028306;28;20017;-67
2022/01/15 03:57:06;;;;;;;69.13;22.25;;;2.50;99.90;;;;;;5029287;28;20409;-66
2022/01/15 03:59:32;;;;;;;70.25;22.83;;;2.40;99.90;;;;;;5031638;28;20044;-67
2022/01/15 04:01:58;;;;;;;78.30;23.85;;;2.40;99.90;;;;;;5029259;28;20025;-67
2022/01/15 04:04:24;;;;;;;74.53;23.20;;;2.40;99.90;;;;;;5027784;28;20532;-67
2022/01/15 04:06:49;;;;;;;76.45;25.13;;;2.50;99.90;;;;;;5024076;28;20030;-67
2022/01/15 04:09:17;;;;;;;76.93;24.10;;;2.50;99.90;;;;;;5028697;28;20512;-67
2022/01/15 04:11:44;;;;;;;74.65;24.42;;;2.60;99.90;;;;;;5029531;28;20059;-67
2022/01/15 04:14:10;;;;;;;77.38;24.73;;;2.60;99.90;;;;;;5027633;28;20277;-67
2022/01/15 04:16:36;;;;;;;68.03;23.25;;;2.60;99.90;;;;;;5028555;28;20536;-67
2022/01/15 04:19:03;;;;;;;71.00;23.75;;;2.60;99.90;;;;;;5027372;28;20036;-67
2022/01/15 04:21:29;;;;;;;75.00;24.98;;;2.60;99.90;;;;;;5019434;28;20036;-67
2022/01/15 04:23:55;;;;;;;70.43;24.55;;;2.60;99.90;;;;;;5029406;28;20033;-67
2022/01/15 04:26:25;;;;;;;70.97;24.25;;;2.60;99.90;;;;;;5028807;28;20045;-67
2022/01/15 04:28:51;;;;;;;73.78;23.85;;;2.70;99.90;;;;;;5027155;28;20117;-67
2022/01/15 04:31:18;;;;;;;73.53;24.35;;;2.70;99.90;;;;;;5027736;28;20056;-66
2022/01/15 04:33:44;;;;;;;68.38;23.50;;;2.60;99.90;;;;;;5028474;28;20416;-67
2022/01/15 04:36:11;;;;;;;66.82;22.95;;;2.60;99.90;;;;;;5027925;28;20022;-67
2022/01/15 04:38:38;;;;;;;71.40;23.50;;;2.70;99.90;;;;;;5030302;28;20025;-67
2022/01/15 04:41:05;;;;;;;71.75;23.52;;;2.70;99.90;;;;;;5027947;28;20610;-67
2022/01/15 04:43:31;;;;;;;70.15;23.05;;;2.60;99.90;;;;;;5027208;28;20104;-67
2022/01/15 04:45:57;;;;;;;69.88;24.45;;;2.60;99.90;;;;;;5026215;28;20432;-66
2022/01/15 04:48:23;;;;;;;71.55;23.13;;;2.60;99.90;;;;;;5028456;28;20047;-67
2022/01/15 04:50:49;;;;;;;69.03;23.13;;;2.60;99.90;;;;;;5029474;28;20029;-67
2022/01/15 04:53:15;;;;;;;70.72;24.15;;;2.60;99.90;;;;;;5027692;28;20029;-67
2022/01/15 04:55:41;;;;;;;66.45;23.20;;;2.60;99.90;;;;;;5029007;28;20101;-66
2022/01/15 04:58:07;;;;;;;70.10;24.13;;;2.60;99.90;;;;;;5027587;28;20025;-67
2022/01/15 05:00:34;;;;;;;69.63;22.67;;;2.50;99.90;;;;;;5027005;28;20053;-67
2022/01/15 05:03:00;;;;;;;70.30;23.23;;;2.50;99.90;;;;;;5028162;28;20068;-67
2022/01/15 05:05:28;;;;;;;69.13;22.45;;;2.50;99.90;;;;;;5028929;28;20033;-67
2022/01/15 05:07:54;;;;;;;73.07;23.20;;;2.40;99.90;;;;;;5026603;28;20037;-67
2022/01/15 05:10:26;;;;;;;69.22;22.60;;;2.40;99.90;;;;;;5026876;28;20033;-67
2022/01/15 05:12:55;;;;;;;69.85;23.35;;;2.40;99.90;;;;;;5027100;28;20087;-67
2022/01/15 05:15:21;;;;;;;67.88;23.05;;;2.40;99.90;;;;;;5026292;28;20033;-67
2022/01/15 05:17:48;;;;;;;72.78;23.25;;;2.50;99.90;;;;;;5028968;28;20033;-67
2022/01/15 05:20:19;;;;;;;66.00;22.83;;;2.50;99.90;;;;;;5027352;28;20033;-67
2022/01/15 05:22:46;;;;;;;79.07;23.55;;;2.50;99.90;;;;;;5025864;28;20388;-67
2022/01/15 05:25:16;;;;;;;66.15;21.17;;;2.40;99.90;;;;;;5026585;28;20026;-67
2022/01/15 05:27:44;;;;;;;68.65;22.75;;;2.40;99.90;;;;;;5025100;28;20112;-67
2022/01/15 05:30:11;;;;;;;72.90;24.55;;;2.40;99.90;;;;;;5026902;28;20509;-67
2022/01/15 05:32:36;;;;;;;77.50;23.13;;;2.30;99.90;;;;;;5029753;28;20033;-67
2022/01/15 05:35:03;;;;;;;78.80;25.20;;;2.30;99.90;;;;;;5027104;28;20852;-67
2022/01/15 05:37:29;;;;;;;73.95;23.73;;;2.30;99.90;;;;;;5025612;28;20041;-67
2022/01/15 05:39:54;;;;;;;67.90;22.63;;;2.30;99.90;;;;;;5026054;28;20034;-67
2022/01/15 05:42:20;;;;;;;74.65;24.52;;;2.30;99.90;;;;;;5026107;28;20649;-67
2022/01/15 05:44:46;;;;;;;76.95;23.98;;;2.30;99.90;;;;;;5029255;28;20037;-67
2022/01/15 05:47:12;;;;;;;81.00;25.25;;;2.30;99.90;;;;;;5027294;28;20520;-66
2022/01/15 05:49:38;;;;;;;73.60;24.33;;;2.30;99.90;;;;;;5027703;28;20527;-67
2022/01/15 05:52:05;;;;;;;80.53;25.23;;;2.30;99.90;;;;;;5025367;28;20401;-67
2022/01/15 05:54:31;;;;;;;79.25;24.70;;;2.30;99.90;;;;;;5028313;28;20048;-67
2022/01/15 05:56:57;;;;;;;74.00;24.25;;;2.20;99.90;;;;;;5027702;28;20029;-67
2022/01/15 05:59:23;;;;;;;68.10;22.10;;;2.30;99.90;;;;;;5024091;28;20542;-67
2022/01/15 06:01:49;;;;;;;79.68;24.73;;;2.30;99.90;;;;;;5025429;28;20033;-67
2022/01/15 06:04:14;;;;;;;72.40;23.30;;;2.30;99.90;;;;;;5022488;28;20746;-67
2022/01/15 06:06:40;;;;;;;71.00;23.02;;;2.30;99.90;;;;;;5025433;28;20018;-67
2022/01/15 06:09:06;;;;;;;60.92;18.70;;;2.30;99.90;;;;;;5026186;28;20061;-66
2022/01/15 06:11:34;;;;;;;75.50;23.67;;;2.20;99.90;;;;;;5027886;28;20028;-67
2022/01/15 06:14:00;;;;;;;79.15;23.75;;;2.20;99.90;;;;;;5027347;28;20025;-67
2022/01/15 06:16:26;;;;;;;85.57;24.10;;;2.20;99.90;;;;;;5024196;28;20014;-67
2022/01/15 06:18:52;;;;;;;70.35;20.70;;;2.20;99.90;;;;;;5026731;28;20022;-67
2022/01/15 06:21:18;;;;;;;79.10;24.83;;;2.20;99.90;;;;;;5025399;28;20397;-67
2022/01/15 06:23:43;;;;;;;87.78;24.50;;;2.20;99.90;;;;;;5029330;28;20580;-67
2022/01/15 06:26:09;;;;;;;82.95;24.75;;;2.20;99.90;;;;;;5027517;28;20461;-67
2022/01/15 06:28:35;;;;;;;78.00;24.20;;;2.20;99.90;;;;;;5023683;28;20040;-67
2022/01/15 06:31:01;;;;;;;82.70;24.23;;;2.10;99.90;;;;;;5025126;28;20028;-67
2022/01/15 06:33:26;;;;;;;73.88;23.75;;;2.20;99.90;;;;;;5024783;28;20661;-67
2022/01/15 06:35:52;;;;;;;86.15;25.27;;;2.20;99.90;;;;;;5027371;28;20021;-67
2022/01/15 06:38:18;;;;;;;95.72;25.38;;;2.20;99.90;;;;;;5026280;28;20124;-67
2022/01/15 06:40:43;;;;;;;81.65;24.67;;;2.20;99.90;;;;;;5024482;28;20488;-67
2022/01/15 06:43:10;;;;;;;79.25;24.40;;;2.20;99.90;;;;;;5026779;28;20043;-67
2022/01/15 06:45:36;;;;;;;78.40;25.08;;;2.20;99.90;;;;;;5024222;28;20028;-67
2022/01/15 06:48:02;;;;;;;80.35;23.95;;;2.20;99.90;;;;;;5026281;28;20136;-67
2022/01/15 06:50:30;;;;;;;75.72;23.02;;;2.20;99.90;;;;;;5028124;28;20041;-67
2022/01/15 06:52:57;;;;;;;73.72;22.02;;;2.20;99.90;;;;;;5024574;28;20477;-67
2022/01/15 06:55:23;;;;;;;76.47;23.77;;;2.20;99.90;;;;;;5026665;28;20075;-67
2022/01/15 06:57:49;;;;;;;137.68;44.00;;;2.20;99.90;;;;;;5024618;28;20037;-67
2022/01/15 07:00:16;;;;;;;80.07;27.02;;;2.20;99.90;;;;;;5024421;28;20117;-68
2022/01/15 07:02:42;;;;;;;78.68;23.27;;;2.20;99.90;;;;;;5029718;28;20025;-67
2022/01/15 07:05:08;;;;;;;70.03;23.65;;;2.20;99.90;;;;;;5022586;28;20087;-67
2022/01/15 07:07:35;;;;;;;76.18;23.27;;;2.20;99.90;;;;;;5023310;28;20088;-66
2022/01/15 07:10:01;;;;;;;69.10;22.75;;;2.20;99.90;;;;;;5026380;28;20026;-66
2022/01/15 07:12:27;;;;;;;69.07;22.67;;;2.30;99.90;;;;;;5027024;28;20055;-66
2022/01/15 07:14:53;;;;;;;65.05;20.92;;;2.30;99.90;;;;;;5026767;28;20466;-66
2022/01/15 07:17:18;;;;;;;68.97;21.52;;;2.30;99.90;;;;;;5026871;28;20037;-66
2022/01/15 07:19:44;;;;;;;71.70;21.70;;;2.30;99.90;;;;;;5025745;28;20515;-66
2022/01/15 07:22:10;;;;;;;73.32;23.33;;;2.30;99.90;;;;;;5024283;28;20092;-66
2022/01/15 07:24:36;;;;;;;82.13;22.70;;;2.30;99.90;;;;;;5025553;28;20508;-66
2022/01/15 07:27:03;;;;;;;75.28;23.00;;;2.40;99.90;;;;;;5027005;28;20077;-67
2022/01/15 07:29:30;;;;;;;73.25;22.48;;;2.40;99.90;;;;;;5026372;28;20041;-67
2022/01/15 07:31:56;;;;;;;73.25;23.63;;;2.40;99.90;;;;;;5024899;28;20026;-67
2022/01/15 07:34:22;;;;;;;71.55;23.63;;;2.40;99.90;;;;;;5026201;28;20124;-67
2022/01/15 07:36:53;;;;;;;73.57;22.75;;;2.40;99.90;;;;;;5024456;28;20096;-67
2022/01/15 07:39:20;;;;;;;64.88;22.02;;;2.40;99.90;;;;;;5026227;28;20040;-68
2022/01/15 07:41:46;;;;;;;84.93;24.40;;;2.40;99.90;;;;;;5026944;28;20100;-66
2022/01/15 07:44:12;;;;;;;105.03;26.23;;;2.50;99.90;;;;;;5024278;28;20116;-67
2022/01/15 07:46:38;;;;;;;91.00;25.80;;;2.50;99.90;;;;;;5024120;28;20132;-67
2022/01/15 07:49:04;;;;;;;85.70;23.23;;;2.40;99.90;;;;;;5025272;28;20083;-67
2022/01/15 07:51:30;;;;;;;89.38;24.77;;;2.50;99.90;;;;;;5026929;28;20509;-66
2022/01/15 07:53:56;;;;;;;110.53;30.83;;;2.50;99.90;;;;;;5030014;28;20056;-67
2022/01/15 07:56:21;;;;;;;121.93;25.95;;;2.50;99.90;;;;;;5030013;28;20475;-67
2022/01/15 07:58:48;;;;;;;94.78;25.88;;;2.50;99.90;;;;;;5027660;28;20022;-66
2022/01/15 08:01:14;;;;;;;104.78;25.40;;;2.60;99.90;;;;;;5029639;28;20087;-67
2022/01/15 08:03:40;;;;;;;99.65;25.42;;;2.60;99.90;;;;;;5029839;28;20079;-67
2022/01/15 08:06:07;;;;;;;102.85;26.20;;;2.60;99.90;;;;;;5029688;28;20021;-67
2022/01/15 08:08:33;;;;;;;94.32;26.05;;;2.60;99.90;;;;;;5027156;28;20072;-67
2022/01/15 08:10:59;;;;;;;70.70;20.85;;;2.60;99.90;;;;;;5030826;28;20536;-67
2022/01/15 08:13:26;;;;;;;105.15;25.27;;;2.60;99.90;;;;;;5027819;28;20021;-67
2022/01/15 08:15:52;;;;;;;104.00;24.02;;;2.60;99.90;;;;;;5026939;28;20033;-67
2022/01/15 08:18:21;;;;;;;91.95;23.70;;;2.60;99.90;;;;;;5028505;28;20033;-67
2022/01/15 08:20:48;;;;;;;99.22;24.02;;;2.60;99.90;;;;;;5031753;28;20124;-66
2022/01/15 08:23:14;;;;;;;105.28;24.92;;;2.60;99.90;;;;;;5023780;28;20087;-66
2022/01/15 08:25:40;;;;;;;95.65;24.23;;;2.60;99.90;;;;;;5028335;28;20026;-63
2022/01/15 08:28:06;;;;;;;83.32;23.00;;;2.60;99.90;;;;;;5030154;28;20032;-65
2022/01/15 08:30:33;;;;;;;89.70;23.33;;;2.60;99.90;;;;;;5029643;28;20605;-66
2022/01/15 08:32:58;;;;;;;100.05;23.75;;;2.60;99.90;;;;;;5029771;28;20044;-66
2022/01/15 08:35:25;;;;;;;78.85;23.52;;;2.70;99.90;;;;;;5029137;28;20029;-66
2022/01/15 08:37:51;;;;;;;79.72;23.05;;;2.70;99.90;;;;;;5032592;28;20034;-66
2022/01/15 08:40:21;;;;;;;85.18;23.23;;;2.70;99.90;;;;;;5027801;28;20033;-65
2022/01/15 08:42:48;;;;;;;88.15;23.50;;;2.80;99.90;;;;;;5029195;28;20491;-65
2022/01/15 08:45:15;;;;;;;85.63;25.15;;;2.80;99.90;;;;;;5027524;28;20075;-66
2022/01/15 08:47:43;;;;;;;94.82;24.75;;;2.80;99.90;;;;;;5028955;28;20095;-66
2022/01/15 08:50:10;;;;;;;78.05;22.42;;;2.90;99.90;;;;;;5025492;28;20044;-69
2022/01/15 08:52:37;;;;;;;95.88;24.30;;;2.90;99.90;;;;;;5023163;28;20446;-71
2022/01/15 08:55:04;;;;;;;91.63;23.80;;;3.00;99.90;;;;;;5027731;28;20041;-65
2022/01/15 08:57:30;;;;;;;93.90;24.60;;;3.00;99.90;;;;;;5029622;28;20108;-65
2022/01/15 08:59:56;;;;;;;99.38;23.58;;;3.00;99.90;;;;;;5035263;28;20112;-65
2022/01/15 09:02:23;;;;;;;95.47;23.00;;;3.10;99.90;;;;;;5028635;28;20112;-65
2022/01/15 09:04:49;;;;;;;91.50;24.00;;;3.10;99.90;;;;;;5024310;28;20092;-65
2022/01/15 09:07:15;;;;;;;77.35;22.52;;;3.10;99.90;;;;;;5028209;28;20033;-65
2022/01/15 09:09:41;;;;;;;76.97;22.95;;;3.20;99.90;;;;;;5029181;28;20052;-65
2022/01/15 09:12:09;;;;;;;69.65;21.75;;;3.20;99.90;;;;;;5023266;28;20489;-65
2022/01/15 09:14:35;;;;;;;73.35;21.50;;;3.30;99.90;;;;;;5028370;28;20477;-65
2022/01/15 09:17:01;;;;;;;77.75;23.08;;;3.30;99.90;;;;;;5027125;28;20183;-65
2022/01/15 09:19:27;;;;;;;68.72;21.17;;;3.30;99.90;;;;;;5028237;28;20477;-65
2022/01/15 09:21:53;;;;;;;75.97;21.75;;;3.40;99.90;;;;;;5021855;28;20071;-66
2022/01/15 09:24:19;;;;;;;72.93;21.67;;;3.30;99.90;;;;;;5025720;28;20064;-65
2022/01/15 09:27:00;;;;;;;78.57;21.90;;;3.40;99.90;;;;;;5031158;28;20052;-65
2022/01/15 09:32:11;;;;;;;58.28;19.33;;;3.40;99.90;;;;;;5027145;28;19995;-65
2022/01/15 09:34:37;;;;;;;64.32;20.60;;;3.40;99.90;;;;;;5030266;28;20022;-65
2022/01/15 09:37:06;;;;;;;73.22;21.60;;;3.40;99.90;;;;;;5028921;28;20157;-65
2022/01/15 09:39:33;;;;;;;69.05;21.17;;;3.30;99.90;;;;;;5024704;28;20076;-65
2022/01/15 09:41:59;;;;;;;71.68;21.50;;;3.30;99.90;;;;;;5028557;28;20029;-65
2022/01/15 09:44:26;;;;;;;71.50;21.02;;;3.40;99.90;;;;;;5028408;28;20120;-65
2022/01/15 09:46:52;;;;;;;70.25;22.10;;;3.40;99.90;;;;;;5026571;28;20136;-65
2022/01/15 09:49:22;;;;;;;61.35;20.38;;;3.40;99.90;;;;;;5025537;28;20025;-65
2022/01/15 09:51:48;;;;;;;69.28;21.48;;;3.50;99.90;;;;;;5029842;28;20087;-65
2022/01/15 09:54:16;;;;;;;68.95;20.88;;;3.60;99.90;;;;;;5027944;28;20025;-65
2022/01/15 09:56:42;;;;;;;70.05;21.02;;;3.60;99.90;;;;;;5031632;28;20026;-65
2022/01/15 09:59:08;;;;;;;60.13;20.70;;;3.70;99.90;;;;;;5025346;28;20064;-66
2022/01/15 10:01:34;;;;;;;68.40;21.20;;;3.70;99.90;;;;;;5029904;28;20049;-65
2022/01/15 10:04:00;;;;;;;65.80;21.35;;;3.70;99.90;;;;;;5029571;28;20032;-66
2022/01/15 10:06:27;;;;;;;67.55;21.27;;;3.80;99.90;;;;;;5025953;28;20493;-65
2022/01/15 10:09:07;;;;;;;66.53;20.90;;;3.80;99.90;;;;;;5027328;28;20667;-66
2022/01/15 10:11:48;;;;;;;64.45;21.75;;;3.90;99.90;;;;;;5022147;28;20108;-65
2022/01/15 10:14:29;;;;;;;62.33;21.13;;;3.90;99.90;;;;;;5036279;28;20045;-66
2022/01/15 10:16:57;;;;;;;74.40;21.15;;;4.00;99.90;;;;;;5027584;28;20164;-66
2022/01/15 10:19:34;;;;;;;65.22;21.92;;;4.00;99.90;;;;;;5025743;28;20021;-66
2022/01/15 10:22:13;;;;;;;66.40;22.27;;;4.00;99.90;;;;;;5027714;28;20044;-67
2022/01/15 10:24:42;;;;;;;52.30;19.63;;;4.10;99.90;;;;;;5050100;28;20037;-68
2022/01/15 10:27:22;;;;;;;52.83;19.13;;;4.10;99.90;;;;;;5023361;28;20034;-67
2022/01/15 10:29:55;;;;;;;51.85;20.20;;;4.20;99.90;;;;;;5024120;28;20071;-67
2022/01/15 10:32:22;;;;;;;47.17;18.58;;;4.30;99.90;;;;;;5028032;28;20662;-67
2022/01/15 10:34:48;;;;;;;52.30;18.88;;;4.30;99.90;;;;;;5031121;28;20029;-67
2022/01/15 10:37:20;;;;;;;52.08;19.17;;;4.40;99.90;;;;;;5030673;28;20030;-68
2022/01/15 10:39:58;;;;;;;49.58;18.67;;;4.40;99.90;;;;;;5028219;28;20031;-67
2022/01/15 10:42:24;;;;;;;49.95;18.83;;;4.50;99.90;;;;;;5018684;28;20437;-67
2022/01/15 10:44:55;;;;;;;53.13;18.75;;;4.50;99.90;;;;;;5031020;28;20032;-67
2022/01/15 10:47:25;;;;;;;59.08;21.25;;;4.50;99.90;;;;;;5027694;28;20049;-66
2022/01/15 10:49:52;;;;;;;59.33;20.53;;;4.60;99.90;;;;;;5024913;28;20029;-67
2022/01/15 10:52:19;;;;;;;60.40;21.35;;;4.60;99.90;;;;;;5025690;28;20359;-66
2022/01/15 10:55:01;;;;;;;60.28;21.20;;;4.60;99.90;;;;;;5026184;28;20040;-66
2022/01/15 10:57:31;;;;;;;58.80;21.02;;;4.60;99.90;;;;;;5020736;28;20026;-66
2022/01/15 11:00:04;;;;;;;55.92;20.17;;;4.60;99.90;;;;;;5027784;28;20101;-66
2022/01/15 11:02:30;;;;;;;52.80;19.70;;;4.60;99.90;;;;;;5036403;28;20075;-67
2022/01/15 11:04:57;;;;;;;51.50;19.88;;;4.70;99.90;;;;;;5024859;28;20029;-66
2022/01/15 11:07:22;;;;;;;53.95;19.60;;;4.70;99.90;;;;;;5024211;28;20033;-66
2022/01/15 11:09:51;;;;;;;51.53;20.27;;;4.70;99.90;;;;;;5029995;28;20027;-65
2022/01/15 11:12:19;;;;;;;52.63;19.52;;;4.80;99.90;;;;;;5027300;28;20096;-66
2022/01/15 11:14:52;;;;;;;47.13;18.63;;;4.90;99.90;;;;;;5024184;28;20092;-65
2022/01/15 11:17:22;;;;;;;45.58;18.08;;;4.90;99.90;;;;;;5027657;28;20021;-65
2022/01/15 11:19:56;;;;;;;46.78;18.45;;;4.90;99.90;;;;;;5025950;28;20101;-66
2022/01/15 11:22:32;;;;;;;44.40;18.20;;;5.00;99.90;;;;;;5019828;28;20028;-65
2022/01/15 11:25:01;;;;;;;44.72;18.38;;;5.00;99.90;;;;;;5033188;28;20127;-65
2022/01/15 11:27:31;;;;;;;50.28;19.10;;;5.10;99.90;;;;;;5038444;28;20034;-64
2022/01/15 11:30:02;;;;;;;52.88;19.98;;;5.10;99.90;;;;;;5034274;28;20048;-65
2022/01/15 11:32:35;;;;;;;53.17;20.13;;;5.20;99.90;;;;;;5031971;28;20537;-64
2022/01/15 11:35:10;;;;;;;47.65;18.70;;;5.20;99.90;;;;;;5029377;28;20060;-65
2022/01/15 11:37:54;;;;;;;48.92;21.23;;;5.20;99.90;;;;;;5036378;28;20492;-66
2022/01/15 11:40:40;;;;;;;57.13;22.25;;;5.20;99.90;;;;;;5030904;28;20038;-66
2022/01/15 11:43:38;;;;;;;60.95;22.50;;;5.20;99.90;;;;;;5024863;28;20025;-66
2022/01/15 11:46:26;;;;;;;59.20;23.83;;;5.30;99.90;;;;;;5019509;28;20034;-65
2022/01/15 11:49:26;;;;;;;64.18;24.23;;;5.30;99.90;;;;;;5028567;28;20037;-64
2022/01/15 11:52:05;;;;;;;58.15;20.60;;;5.30;99.90;;;;;;5030902;28;20024;-65
2022/01/15 11:54:32;;;;;;;64.00;23.13;;;5.40;99.90;;;;;;5039144;28;20141;-65
2022/01/15 11:57:00;;;;;;;56.97;22.77;;;5.40;99.90;;;;;;5038016;28;20067;-65
2022/01/15 11:59:25;;;;;;;61.33;23.63;;;5.40;99.90;;;;;;5027779;28;20193;-65
2022/01/15 12:01:53;;;;;;;60.75;22.02;;;5.40;99.90;;;;;;5029907;28;20504;-65
2022/01/15 12:04:26;;;;;;;58.85;21.80;;;5.40;99.90;;;;;;5025541;28;20118;-65
2022/01/15 12:07:01;;;;;;;57.70;22.63;;;5.50;99.90;;;;;;5028893;28;20071;-65
2022/01/15 12:12:20;;;;;;;52.88;21.48;;;5.50;99.90;;;;;;4992111;22;23352;-61
2022/01/15 12:14:51;;;;;;;47.20;20.50;;;5.60;99.90;;;;;;4997335;28;20041;-64
2022/01/15 12:17:27;;;;;;;50.75;21.00;;;5.60;99.90;;;;;;5007691;28;20017;-64
2022/01/15 12:22:55;;;;;;;52.40;21.60;;;5.70;99.90;;;;;;4327254;23;20267;-63
2022/01/15 12:25:21;;;;;;;51.38;22.10;;;5.70;99.90;;;;;;4928391;28;20046;-63
2022/01/15 12:27:59;;;;;;;67.70;31.50;;;5.70;99.90;;;;;;4930555;29;20036;-63
2022/01/15 12:30:30;;;;;;;58.40;22.70;;;5.70;99.90;;;;;;4925882;29;20651;-63
2022/01/15 12:33:00;;;;;;;54.78;24.45;;;5.70;99.90;;;;;;4931118;29;20036;-63
2022/01/15 12:35:31;;;;;;;61.50;24.50;;;5.70;99.90;;;;;;4927464;29;20067;-63
2022/01/15 12:38:03;;;;;;;59.67;24.27;;;5.80;99.90;;;;;;4933336;29;20035;-64
2022/01/15 12:40:30;;;;;;;60.67;25.08;;;5.80;99.90;;;;;;4931809;29;20035;-63
2022/01/15 12:42:57;;;;;;;56.38;23.95;;;5.80;99.90;;;;;;4929148;29;21016;-63
2022/01/15 12:45:24;;;;;;;63.97;24.60;;;5.90;99.90;;;;;;4917500;29;20094;-63
2022/01/15 12:47:50;;;;;;;59.47;24.52;;;6.00;99.90;;;;;;4920626;29;20507;-64
2022/01/15 12:50:16;;;;;;;60.10;25.58;;;6.00;99.90;;;;;;4920411;29;20036;-64
2022/01/15 12:52:42;;;;;;;58.17;24.88;;;6.00;99.90;;;;;;4921616;29;20178;-65
2022/01/15 12:55:08;;;;;;;59.00;23.45;;;6.00;99.90;;;;;;4931958;29;20038;-63
2022/01/15 12:57:41;;;;;;;56.95;23.30;;;6.00;99.90;;;;;;4933967;29;20038;-63
2022/01/15 13:02:42;;;;;;;52.88;22.55;;;6.10;99.90;;;;;;4773283;23;20055;-64
2022/01/15 13:05:11;;;;;;;55.35;23.50;;;6.10;99.90;;;;;;4947922;28;20039;-64
2022/01/15 13:07:58;;;;;;;53.00;22.05;;;6.20;99.90;;;;;;4952119;28;20091;-64